Time,TemperatureF,DewpointF,PressureIn,WindDirection,WindDirectionDegrees,WindSpeedMPH,WindSpeedGustMPH,Humidity,HourlyPrecipIn,Conditions,Clouds,dailyrainin,SoftwareType,DateUTC
2013-08-05 00:00:00,58.3,53.5,30.03,WNW,300,1.0,3.0,84,0.00,,,0.00,Wunderground v.1.15,2013-08-05 04:00:00,
2013-08-05 00:05:00,58.3,53.5,30.03,WNW,300,2.0,3.0,84,0.00,,,0.00,Wunderground v.1.15,2013-08-05 04:05:00,
2013-08-05 00:10:00,58.2,53.4,30.03,WNW,299,2.0,2.0,84,0.00,,,0.00,Wunderground v.1.15,2013-08-05 04:10:00,
2013-08-05 00:15:00,58.2,53.4,30.03,WNW,299,2.0,3.0,84,0.00,,,0.00,Wunderground v.1.15,2013-08-05 04:15:00,
2013-08-05 00:25:00,58.2,53.4,30.03,WNW,299,2.0,2.0,84,0.00,,,0.00,Wunderground v.1.15,2013-08-05 04:25:00,
2013-08-05 00:30:00,58.2,53.4,30.03,WNW,299,2.0,2.0,84,0.00,,,0.00,Wunderground v.1.15,2013-08-05 04:30:00,
2013-08-05 00:35:00,58.1,53.3,30.03,WNW,299,1.0,2.0,84,0.00,,,0.00,Wunderground v.1.15,2013-08-05 04:35:00,
2013-08-05 00:45:00,57.9,53.4,30.03,WNW,299,1.0,2.0,85,0.00,,,0.00,Wunderground v.1.15,2013-08-05 04:45:00,
2013-08-05 00:55:00,57.7,53.2,30.04,WNW,299,1.0,1.0,85,0.00,,,0.00,Wunderground v.1.15,2013-08-05 04:55:00,
2013-08-05 01:00:00,57.5,53.0,30.04,WNW,299,0.0,0.0,85,0.00,,,0.00,Wunderground v.1.15,2013-08-05 05:00:00,
2013-08-05 01:10:00,57.3,52.8,30.04,WNW,299,1.0,2.0,85,0.00,,,0.00,Wunderground v.1.15,2013-08-05 05:10:00,
2013-08-05 01:20:00,57.3,52.8,30.04,WNW,299,0.0,0.0,85,0.00,,,0.00,Wunderground v.1.15,2013-08-05 05:20:00,
2013-08-05 01:30:00,57.1,52.6,30.03,WNW,299,0.0,0.0,85,0.00,,,0.00,Wunderground v.1.15,2013-08-05 05:30:00,
2013-08-05 01:40:00,56.9,52.8,30.04,WNW,299,0.0,2.0,86,0.00,,,0.00,Wunderground v.1.15,2013-08-05 05:40:00,
2013-08-05 01:50:00,56.3,52.2,30.04,WNW,299,1.0,1.0,86,0.00,,,0.00,Wunderground v.1.15,2013-08-05 05:50:00,
2013-08-05 01:55:00,55.9,52.1,30.04,WNW,299,0.0,1.0,87,0.00,,,0.00,Wunderground v.1.15,2013-08-05 05:55:00,
2013-08-05 02:05:00,55.0,51.5,30.04,WNW,299,0.0,0.0,88,0.00,,,0.00,Wunderground v.1.15,2013-08-05 06:05:00,
2013-08-05 02:15:00,54.2,51.0,30.04,WNW,299,0.0,1.0,89,0.00,,,0.00,Wunderground v.1.15,2013-08-05 06:15:00,
2013-08-05 02:20:00,54.0,51.1,30.04,WNW,299,0.0,0.0,90,0.00,,,0.00,Wunderground v.1.15,2013-08-05 06:20:00,
2013-08-05 02:30:00,53.5,50.9,30.04,WNW,299,0.0,0.0,91,0.00,,,0.00,Wunderground v.1.15,2013-08-05 06:30:00,
2013-08-05 02:39:00,53.0,50.4,30.04,WNW,299,0.0,0.0,91,0.00,,,0.00,Wunderground v.1.15,2013-08-05 06:39:00,
2013-08-05 02:50:00,52.5,50.2,30.04,WNW,299,0.0,0.0,92,0.00,,,0.00,Wunderground v.1.15,2013-08-05 06:50:00,
2013-08-05 03:00:00,52.1,49.8,30.04,WNW,299,0.0,0.0,92,0.00,,,0.00,Wunderground v.1.15,2013-08-05 07:00:00,
2013-08-05 03:05:00,51.9,49.9,30.04,WNW,299,0.0,0.0,93,0.00,,,0.00,Wunderground v.1.15,2013-08-05 07:05:00,
2013-08-05 03:15:00,51.5,49.8,30.04,WNW,299,0.0,2.0,94,0.00,,,0.00,Wunderground v.1.15,2013-08-05 07:15:00,
2013-08-05 03:20:00,51.4,49.7,30.04,WNW,299,0.0,0.0,94,0.00,,,0.00,Wunderground v.1.15,2013-08-05 07:20:00,
2013-08-05 03:30:00,51.2,49.8,30.04,WNW,299,0.0,0.0,95,0.00,,,0.00,Wunderground v.1.15,2013-08-05 07:30:00,
2013-08-05 03:40:00,51.1,49.7,30.05,WNW,299,0.0,1.0,95,0.00,,,0.00,Wunderground v.1.15,2013-08-05 07:40:00,
2013-08-05 03:45:00,51.1,49.7,30.05,WNW,299,0.0,1.0,95,0.00,,,0.00,Wunderground v.1.15,2013-08-05 07:45:00,
2013-08-05 03:55:00,51.0,49.9,30.05,WNW,299,0.0,0.0,96,0.00,,,0.00,Wunderground v.1.15,2013-08-05 07:55:00,
2013-08-05 04:05:00,50.8,49.7,30.05,WNW,299,0.0,0.0,96,0.00,,,0.00,Wunderground v.1.15,2013-08-05 08:05:00,
2013-08-05 04:15:00,50.7,49.6,30.05,WNW,299,0.0,0.0,96,0.00,,,0.00,Wunderground v.1.15,2013-08-05 08:15:00,
2013-08-05 04:24:00,50.6,49.5,30.05,WNW,299,0.0,0.0,96,0.00,,,0.00,Wunderground v.1.15,2013-08-05 08:24:00,
2013-08-05 04:35:00,50.5,49.4,30.05,WNW,299,0.0,0.0,96,0.00,,,0.00,Wunderground v.1.15,2013-08-05 08:35:00,
2013-08-05 04:45:00,50.3,49.2,30.05,WNW,299,0.0,0.0,96,0.00,,,0.00,Wunderground v.1.15,2013-08-05 08:45:00,
2013-08-05 04:55:00,50.1,49.0,30.05,WNW,299,0.0,0.0,96,0.00,,,0.00,Wunderground v.1.15,2013-08-05 08:55:00,
2013-08-05 05:15:00,50.0,50.0,30.06,WNW,299,1.0,1.0,100,0.00,,,0.00,Wunderground v.1.15,2013-08-05 09:15:00,
2013-08-05 05:30:00,49.8,49.0,30.07,WNW,299,1.0,2.0,97,0.00,,,0.00,Wunderground v.1.15,2013-08-05 09:30:00,
2013-08-05 05:39:00,49.7,48.9,30.07,WNW,299,2.0,2.0,97,0.00,,,0.00,Wunderground v.1.15,2013-08-05 09:39:00,
2013-08-05 05:50:00,49.7,48.9,30.07,WNW,299,2.0,2.0,97,0.00,,,0.00,Wunderground v.1.15,2013-08-05 09:50:00,
2013-08-05 06:00:00,49.8,49.3,30.07,WNW,298,2.0,2.0,98,0.00,,,0.00,Wunderground v.1.15,2013-08-05 10:00:00,
2013-08-05 06:09:00,50.1,49.6,30.07,WNW,298,2.0,3.0,98,0.00,,,0.00,Wunderground v.1.15,2013-08-05 10:09:00,
2013-08-05 06:15:00,50.2,49.7,30.08,WNW,298,3.0,3.0,98,0.00,,,0.00,Wunderground v.1.15,2013-08-05 10:15:00,
2013-08-05 06:25:00,50.5,50.0,30.08,WNW,298,2.0,2.0,98,0.00,,,0.00,Wunderground v.1.15,2013-08-05 10:25:00,
2013-08-05 06:35:00,50.7,50.2,30.08,WNW,298,1.0,2.0,98,0.00,,,0.00,Wunderground v.1.15,2013-08-05 10:35:00,
2013-08-05 06:45:00,50.8,50.3,30.08,WNW,298,2.0,2.0,98,0.00,,,0.00,Wunderground v.1.15,2013-08-05 10:45:00,
2013-08-05 06:55:00,51.0,50.5,30.08,WNW,298,3.0,4.0,98,0.00,,,0.00,Wunderground v.1.15,2013-08-05 10:55:00,
2013-08-05 07:05:00,51.4,50.9,30.09,WNW,298,3.0,4.0,98,0.00,,,0.00,Wunderground v.1.15,2013-08-05 11:05:00,
2013-08-05 07:15:00,51.9,51.6,30.08,WNW,298,2.0,2.0,99,0.00,,,0.00,Wunderground v.1.15,2013-08-05 11:15:00,
2013-08-05 07:25:00,52.5,52.2,30.09,WNW,298,2.0,2.0,99,0.00,,,0.00,Wunderground v.1.15,2013-08-05 11:25:00,
2013-08-05 07:35:00,53.3,53.0,30.09,WNW,298,2.0,3.0,99,0.00,,,0.00,Wunderground v.1.15,2013-08-05 11:35:00,
2013-08-05 07:40:00,53.8,53.5,30.09,WNW,298,1.0,1.0,99,0.00,,,0.00,Wunderground v.1.15,2013-08-05 11:40:00,
2013-08-05 07:55:00,54.9,54.6,30.09,WNW,298,1.0,3.0,99,0.00,,,0.00,Wunderground v.1.15,2013-08-05 11:55:00,
2013-08-05 08:05:00,55.6,55.3,30.09,West,264,1.0,3.0,99,0.00,,,0.00,Wunderground v.1.15,2013-08-05 12:05:00,
2013-08-05 08:14:00,56.5,55.9,30.09,WSW,250,4.0,4.0,98,0.00,,,0.00,Wunderground v.1.15,2013-08-05 12:14:00,
2013-08-05 08:20:00,56.9,56.3,30.09,WSW,250,2.0,2.0,98,0.00,,,0.00,Wunderground v.1.15,2013-08-05 12:20:00,
2013-08-05 08:30:00,57.8,57.0,30.09,WSW,250,1.0,1.0,97,0.00,,,0.00,Wunderground v.1.15,2013-08-05 12:30:00,
2013-08-05 08:40:00,58.7,57.6,30.09,WSW,250,1.0,1.0,96,0.00,,,0.00,Wunderground v.1.15,2013-08-05 12:40:00,
2013-08-05 08:45:00,59.0,57.6,30.09,WSW,250,1.0,3.0,95,0.00,,,0.00,Wunderground v.1.15,2013-08-05 12:45:00,
2013-08-05 09:00:00,60.4,58.1,30.09,WSW,249,2.0,2.0,92,0.00,,,0.00,Wunderground v.1.15,2013-08-05 13:00:00,
2013-08-05 09:05:00,60.9,58.3,30.10,WSW,250,1.0,6.0,91,0.00,,,0.00,Wunderground v.1.15,2013-08-05 13:05:00,
2013-08-05 09:15:00,61.8,58.8,30.09,WSW,249,1.0,1.0,90,0.00,,,0.00,Wunderground v.1.15,2013-08-05 13:15:00,
2013-08-05 09:25:00,62.6,59.0,30.09,WSW,248,1.0,4.0,88,0.00,,,0.00,Wunderground v.1.15,2013-08-05 13:25:00,
2013-08-05 09:40:00,63.6,59.7,30.09,WSW,246,1.0,1.0,87,0.00,,,0.00,Wunderground v.1.15,2013-08-05 13:40:00,
2013-08-05 09:45:00,64.1,60.2,30.09,WSW,246,1.0,1.0,87,0.00,,,0.00,Wunderground v.1.15,2013-08-05 13:45:00,
2013-08-05 09:55:00,64.6,60.0,30.09,WSW,246,1.0,3.0,85,0.00,,,0.00,Wunderground v.1.15,2013-08-05 13:55:00,
2013-08-05 10:00:00,64.9,60.3,30.09,WSW,246,1.0,1.0,85,0.00,,,0.00,Wunderground v.1.15,2013-08-05 14:00:00,
2013-08-05 10:10:00,65.5,60.5,30.09,WSW,246,1.0,1.0,84,0.00,,,0.00,Wunderground v.1.15,2013-08-05 14:10:00,
2013-08-05 10:20:00,65.7,60.1,30.09,WSW,254,2.0,2.0,82,0.00,,,0.00,Wunderground v.1.15,2013-08-05 14:20:00,
2013-08-05 10:25:00,65.8,59.8,30.09,WSW,254,2.0,2.0,81,0.00,,,0.00,Wunderground v.1.15,2013-08-05 14:25:00,
2013-08-05 10:35:00,66.5,61.2,30.09,WSW,254,1.0,1.0,83,0.00,,,0.00,Wunderground v.1.15,2013-08-05 14:35:00,
2013-08-05 10:44:00,66.8,60.1,30.09,WSW,254,1.0,2.0,79,0.00,,,0.00,Wunderground v.1.15,2013-08-05 14:44:00,
2013-08-05 10:55:00,67.6,60.5,30.08,WSW,257,1.0,1.0,78,0.00,,,0.00,Wunderground v.1.15,2013-08-05 14:55:00,
2013-08-05 11:05:00,68.3,60.4,30.08,WSW,246,2.0,5.0,76,0.00,,,0.00,Wunderground v.1.15,2013-08-05 15:05:00,
2013-08-05 11:15:00,69.0,60.7,30.08,WSW,246,1.0,2.0,75,0.00,,,0.00,Wunderground v.1.15,2013-08-05 15:15:00,
2013-08-05 11:25:00,69.7,59.1,30.08,WSW,252,1.0,3.0,69,0.00,,,0.00,Wunderground v.1.15,2013-08-05 15:25:00,
2013-08-05 11:35:00,70.1,59.0,30.08,West,259,1.0,3.0,68,0.00,,,0.00,Wunderground v.1.15,2013-08-05 15:35:00,
2013-08-05 11:40:00,70.0,55.9,30.08,West,259,2.0,2.0,61,0.00,,,0.00,Wunderground v.1.15,2013-08-05 15:40:00,
2013-08-05 11:50:00,70.1,56.5,30.07,WNW,302,2.0,2.0,62,0.00,,,0.00,Wunderground v.1.15,2013-08-05 15:50:00,
2013-08-05 12:00:00,70.7,57.9,30.07,NW,305,1.0,1.0,64,0.00,,,0.00,Wunderground v.1.15,2013-08-05 16:00:00,
2013-08-05 12:05:00,71.1,56.5,30.07,WNW,292,1.0,1.0,60,0.00,,,0.00,Wunderground v.1.15,2013-08-05 16:05:00,
2013-08-05 12:15:00,71.1,56.0,30.07,WNW,290,1.0,8.0,59,0.00,,,0.00,Wunderground v.1.15,2013-08-05 16:15:00,
2013-08-05 12:24:00,70.5,55.9,30.06,West,276,2.0,2.0,60,0.00,,,0.00,Wunderground v.1.15,2013-08-05 16:24:00,
2013-08-05 12:30:00,70.9,55.4,30.06,West,275,3.0,4.0,58,0.00,,,0.00,Wunderground v.1.15,2013-08-05 16:30:00,
2013-08-05 12:45:00,71.7,57.1,30.06,West,281,1.0,2.0,60,0.00,,,0.00,Wunderground v.1.15,2013-08-05 16:45:00,
2013-08-05 12:50:00,72.4,55.3,30.06,WNW,290,0.0,0.0,55,0.00,,,0.00,Wunderground v.1.15,2013-08-05 16:50:00,
2013-08-05 13:00:00,72.8,57.2,30.05,WNW,290,1.0,3.0,58,0.00,,,0.00,Wunderground v.1.15,2013-08-05 17:00:00,
2013-08-05 13:10:00,72.7,55.6,30.05,WNW,290,2.0,2.0,55,0.00,,,0.00,Wunderground v.1.15,2013-08-05 17:10:00,
2013-08-05 13:20:00,72.3,55.2,30.05,WNW,290,1.0,1.0,55,0.00,,,0.00,Wunderground v.1.15,2013-08-05 17:20:00,
2013-08-05 13:29:00,72.9,55.8,30.05,WNW,292,1.0,1.0,55,0.00,,,0.00,Wunderground v.1.15,2013-08-05 17:29:00,
2013-08-05 13:35:00,73.4,55.7,30.05,WNW,282,2.0,3.0,54,0.00,,,0.00,Wunderground v.1.15,2013-08-05 17:35:00,
2013-08-05 13:44:00,73.8,56.1,30.04,West,281,2.0,3.0,54,0.00,,,0.00,Wunderground v.1.15,2013-08-05 17:44:00,
2013-08-05 13:54:00,74.0,55.8,30.04,West,279,1.0,2.0,53,0.00,,,0.00,Wunderground v.1.15,2013-08-05 17:54:00,
2013-08-05 14:00:00,74.5,56.8,30.03,West,279,0.0,1.0,54,0.00,,,0.00,Wunderground v.1.15,2013-08-05 18:00:00,
2013-08-05 14:10:00,75.6,56.2,30.03,NW,312,1.0,1.0,51,0.00,,,0.00,Wunderground v.1.15,2013-08-05 18:10:00,
2013-08-05 14:35:00,75.2,55.8,30.04,WNW,290,2.0,3.0,51,0.00,,,0.00,Wunderground v.1.15,2013-08-05 18:35:00,
2013-08-05 14:40:00,74.7,55.9,30.03,WNW,290,2.0,3.0,52,0.00,,,0.00,Wunderground v.1.15,2013-08-05 18:40:00,
2013-08-05 14:50:00,75.1,55.7,30.03,WNW,290,1.0,2.0,51,0.00,,,0.00,Wunderground v.1.15,2013-08-05 18:50:00,
2013-08-05 15:00:00,75.8,56.4,30.03,WNW,290,0.0,0.0,51,0.00,,,0.00,Wunderground v.1.15,2013-08-05 19:00:00,
2013-08-05 15:10:00,74.8,57.5,30.03,NW,319,1.0,1.0,55,0.00,,,0.00,Wunderground v.1.15,2013-08-05 19:10:00,
2013-08-05 15:20:00,74.7,56.9,30.03,NW,322,1.0,1.0,54,0.00,,,0.00,Wunderground v.1.15,2013-08-05 19:20:00,
2013-08-05 15:25:00,75.0,55.6,30.03,NW,322,1.0,3.0,51,0.00,,,0.00,Wunderground v.1.15,2013-08-05 19:25:00,
2013-08-05 15:35:00,75.7,54.6,30.03,WNW,296,2.0,4.0,48,0.00,,,0.00,Wunderground v.1.15,2013-08-05 19:35:00,
2013-08-05 15:45:00,75.8,55.8,30.02,WNW,296,1.0,2.0,50,0.00,,,0.00,Wunderground v.1.15,2013-08-05 19:45:00,
2013-08-05 15:50:00,76.0,56.0,30.02,WNW,296,0.0,0.0,50,0.00,,,0.00,Wunderground v.1.15,2013-08-05 19:50:00,
2013-08-05 16:00:00,75.6,58.3,30.02,WNW,296,1.0,1.0,55,0.00,,,0.00,Wunderground v.1.15,2013-08-05 20:00:00,
2013-08-05 16:10:00,74.9,56.6,30.02,NNW,327,1.0,1.0,53,0.00,,,0.00,Wunderground v.1.15,2013-08-05 20:10:00,
2013-08-05 16:20:00,74.9,57.6,30.02,NNW,327,0.0,0.0,55,0.00,,,0.00,Wunderground v.1.15,2013-08-05 20:20:00,
2013-08-05 16:30:00,75.2,56.9,30.01,NNW,327,1.0,1.0,53,0.00,,,0.00,Wunderground v.1.15,2013-08-05 20:30:00,
2013-08-05 16:40:00,75.5,55.6,30.02,NNW,327,0.0,1.0,50,0.00,,,0.00,Wunderground v.1.15,2013-08-05 20:40:00,
2013-08-05 16:50:00,75.3,58.0,30.01,NW,309,2.0,2.0,55,0.00,,,0.00,Wunderground v.1.15,2013-08-05 20:50:00,
2013-08-05 16:55:00,75.1,57.3,30.02,NW,309,2.0,2.0,54,0.00,,,0.00,Wunderground v.1.15,2013-08-05 20:55:00,
2013-08-05 17:10:00,74.6,55.8,30.02,NW,317,1.0,1.0,52,0.00,,,0.00,Wunderground v.1.15,2013-08-05 21:10:00,
2013-08-05 17:15:00,74.7,56.9,30.02,NW,317,1.0,1.0,54,0.00,,,0.00,Wunderground v.1.15,2013-08-05 21:15:00,
2013-08-05 17:25:00,75.2,57.9,30.02,NW,317,0.0,0.0,55,0.00,,,0.00,Wunderground v.1.15,2013-08-05 21:25:00,
2013-08-05 17:35:00,75.5,57.7,30.02,NW,317,1.0,1.0,54,0.00,,,0.00,Wunderground v.1.15,2013-08-05 21:35:00,
2013-08-05 17:40:00,75.7,56.8,30.02,NW,317,0.0,0.0,52,0.00,,,0.00,Wunderground v.1.15,2013-08-05 21:40:00,
2013-08-05 17:50:00,76.2,57.8,30.01,NW,317,0.0,0.0,53,0.00,,,0.00,Wunderground v.1.15,2013-08-05 21:50:00,
2013-08-05 18:00:00,76.3,57.4,30.01,NW,317,1.0,1.0,52,0.00,,,0.00,Wunderground v.1.15,2013-08-05 22:00:00,
2013-08-05 18:05:00,76.2,55.6,30.01,NW,317,0.0,1.0,49,0.00,,,0.00,Wunderground v.1.15,2013-08-05 22:05:00,
2013-08-05 18:15:00,75.8,58.0,30.01,NW,317,0.0,0.0,54,0.00,,,0.00,Wunderground v.1.15,2013-08-05 22:15:00,
2013-08-05 18:30:00,74.8,57.5,30.01,NW,317,0.0,0.0,55,0.00,,,0.00,Wunderground v.1.15,2013-08-05 22:30:00,
2013-08-05 18:35:00,74.3,58.1,30.01,NW,317,0.0,0.0,57,0.00,,,0.00,Wunderground v.1.15,2013-08-05 22:35:00,
2013-08-05 18:45:00,73.6,60.7,30.01,NW,317,0.0,0.0,64,0.00,,,0.00,Wunderground v.1.15,2013-08-05 22:45:00,
2013-08-05 18:55:00,72.6,58.8,30.01,NW,317,0.0,0.0,62,0.00,,,0.00,Wunderground v.1.15,2013-08-05 22:55:00,
2013-08-05 19:00:00,71.9,59.5,30.01,NW,317,0.0,0.0,65,0.00,,,0.00,Wunderground v.1.15,2013-08-05 23:00:00,
2013-08-05 19:10:00,71.3,59.4,30.01,NW,317,0.0,0.0,66,0.00,,,0.00,Wunderground v.1.15,2013-08-05 23:10:00,
2013-08-05 19:35:00,70.2,60.0,30.01,NW,323,0.0,0.0,70,0.00,,,0.00,Wunderground v.1.15,2013-08-05 23:35:00,
2013-08-05 19:40:00,69.9,60.5,30.01,NW,323,0.0,0.0,72,0.00,,,0.00,Wunderground v.1.15,2013-08-05 23:40:00,
2013-08-05 19:50:00,69.6,60.9,30.01,NW,323,0.0,0.0,74,0.00,,,0.00,Wunderground v.1.15,2013-08-05 23:50:00,
2013-08-05 20:00:00,69.3,60.7,30.01,NW,323,0.0,0.0,74,0.00,,,0.00,Wunderground v.1.15,2013-08-06 00:00:00,
2013-08-05 20:05:00,69.2,60.9,30.01,NW,323,0.0,0.0,75,0.00,,,0.00,Wunderground v.1.15,2013-08-06 00:05:00,
2013-08-05 20:15:00,68.6,60.7,30.01,NW,323,0.0,0.0,76,0.00,,,0.00,Wunderground v.1.15,2013-08-06 00:15:00,
2013-08-05 20:25:00,67.6,60.1,30.01,NW,323,0.0,0.0,77,0.00,,,0.00,Wunderground v.1.15,2013-08-06 00:25:00,
2013-08-05 20:30:00,67.1,59.6,30.01,NW,323,0.0,0.0,77,0.00,,,0.00,Wunderground v.1.15,2013-08-06 00:30:00,
2013-08-05 20:40:00,65.9,59.2,30.01,NW,323,0.0,0.0,79,0.00,,,0.00,Wunderground v.1.15,2013-08-06 00:40:00,
2013-08-05 20:45:00,65.3,58.6,30.01,NW,323,0.0,0.0,79,0.00,,,0.00,Wunderground v.1.15,2013-08-06 00:45:00,
2013-08-05 20:55:00,64.1,57.8,30.01,NW,323,0.0,0.0,80,0.00,,,0.00,Wunderground v.1.15,2013-08-06 00:55:00,
2013-08-05 21:00:00,63.7,57.8,30.02,NW,323,0.0,0.0,81,0.00,,,0.00,Wunderground v.1.15,2013-08-06 01:00:00,
2013-08-05 21:10:00,62.7,57.1,30.01,NW,323,0.0,0.0,82,0.00,,,0.00,Wunderground v.1.15,2013-08-06 01:10:00,
2013-08-05 21:20:00,61.7,56.8,30.01,NW,323,0.0,0.0,84,0.00,,,0.00,Wunderground v.1.15,2013-08-06 01:20:00,
2013-08-05 21:30:00,60.8,55.9,30.02,NW,323,0.0,0.0,84,0.00,,,0.00,Wunderground v.1.15,2013-08-06 01:30:00,
2013-08-05 21:40:00,60.1,55.6,30.02,NW,323,0.0,0.0,85,0.00,,,0.00,Wunderground v.1.15,2013-08-06 01:40:00,
2013-08-05 21:50:00,59.5,55.3,30.02,NW,323,0.0,0.0,86,0.00,,,0.00,Wunderground v.1.15,2013-08-06 01:50:00,
2013-08-05 21:55:00,59.0,55.1,30.02,NW,323,0.0,0.0,87,0.00,,,0.00,Wunderground v.1.15,2013-08-06 01:55:00,
2013-08-05 22:00:00,59.0,55.4,30.02,NW,323,0.0,0.0,88,0.00,,,0.00,Wunderground v.1.15,2013-08-06 02:00:00,
2013-08-05 22:10:00,58.5,55.3,30.01,NW,323,0.0,0.0,89,0.00,,,0.00,Wunderground v.1.15,2013-08-06 02:10:00,
2013-08-05 22:20:00,58.1,55.5,30.01,NW,323,0.0,0.0,91,0.00,,,0.00,Wunderground v.1.15,2013-08-06 02:20:00,
2013-08-05 22:25:00,57.8,55.2,30.01,NW,323,0.0,0.0,91,0.00,,,0.00,Wunderground v.1.15,2013-08-06 02:25:00,
2013-08-05 22:35:00,57.5,55.2,30.01,NW,323,0.0,0.0,92,0.00,,,0.00,Wunderground v.1.15,2013-08-06 02:35:00,